RLSO2: Arkansas River, Ralston, OK

                                SHEF ID:       RLSO2     Arkansas River at Ralston, OK
STATION TYPE:
Regulating: Stage = 16.00, Flow = 78729

PRECIP STAGE STAGE(2) RIV-FLOW AIR-TEMP BAT-LOAD
in ft ft cfs F volt
Ccp-Rev Ccp-Rev Ccp-Rev Ccp-Rev Ccp-Rev Ccp-Rev
(America/Chicago)
04/26 00:00 0.00 6.36 6.35 6614 68.54 12.72
04/26 01:00 0.00 6.34 6.32 6548 67.82 12.70
04/26 02:00 0.00 6.31 6.30 6451 67.28 12.68
04/26 03:00 0.00 6.28 6.27 6354 66.20 12.67
04/26 04:00 0.00 6.23 6.25 6194 64.58 12.64
04/26 05:00 0.00 6.21 6.21 6131 64.04 12.63
04/26 06:00 0.00 6.18 6.17 6037 63.32 12.63
04/26 07:00 0.00 6.15 6.15 5943 63.32 12.63
04/26 08:00 0.00 6.11 6.12 5820 64.76 12.63
04/26 09:00 0.00 6.08 6.09 5728 66.92 12.72
04/26 10:00 0.00 6.04 6.06 5608 67.28 12.93
04/26 11:00 0.00 6.01 6.00 5517 69.62 12.93
04/26 12:00 0.00 5.97 5.98 5396 73.22 13.34
04/26 13:00 0.00 5.93 5.96 5278 76.46 13.16
04/26 14:00 0.00 5.88 5.92 5131 78.62 13.08
04/26 15:00 0.00 5.86 5.90 5073 80.96 13.03
04/26 16:00 0.00 5.86 5.89 5073 82.22 13.01
04/26 17:00 0.00 5.82 5.88 4958 82.40 12.96
04/26 18:00 0.00 5.84 5.86 5016 82.40 12.99
04/26 19:00 0.00 5.85 5.84 5044 81.50 12.93
04/26 20:00 0.00 5.81 5.83 4930 80.24 12.89
04/26 21:00 0.00 5.81 5.82 4930 78.08 12.80
04/26 22:00 0.00 5.79 5.79 4873 76.64 12.77
04/26 23:00 0.00 5.78 5.77 4845 76.10 12.76
Data processed at Mon 27Apr2026 04:21 GMT

NOTICE: If you are parsing this page

Please convert to using our Data API. Starting early 2026 we will be migrating to: https://water.usace.army.mil with modern pages rendered in JavaScript. When this migration completes you will no longer be able to scrape this page! CWMSDataAPI (CDA)

Timeseries IDs (TSIDs)

TSIDs used from left to right in the data table
RALS.Precip-Inc.Total.1Hour.1Hour.Ccp-Rev
RALS.Stage.Inst.1Hour.0.Ccp-Rev
RALS.Stage-Alt.Inst.1Hour.0.Ccp-Rev
RALS.Flow.Inst.1Hour.0.Ccp-Rev
RALS.Temp-Air.Inst.1Hour.0.Ccp-Rev
RALS.Volt-Battery Load.Inst.1Hour.0.Ccp-Rev

                            

All information presented herein is the property of the government of the United States of America and may be revised or deleted at any time without prior notice. Dissemination of this information without the expressed written consent of the Public Affairs Office, Tulsa District U.S. Army Corps of Engineers is strictly prohibited. These data are gathered electronically and, as presented, have NOT undergone any form of quality control. These data are NOT guaranteed to be valid or correct.